Time;durP1;ratioP1;P1;durP2;ratioP2;P2;SDS_P1;SDS_P2;PMS_P1;PMS_P2;Temp;Humidity;BMP_temperature;BMP_pressure;BME280_temperature;BME280_humidity;BME280_pressure;Samples;Min_cycle;Max_cycle;Signal;HPM_P1;HPM_P2
2023/02/10 00:01:29;;;;;;;39.90;33.57;;;3.70;99.90;;;;;;5114046;28;20839;-71
2023/02/10 00:03:57;;;;;;;39.80;34.10;;;3.70;99.90;;;;;;5114401;28;20419;-71
2023/02/10 00:06:27;;;;;;;39.27;32.53;;;3.70;99.90;;;;;;5095763;28;20474;-72
2023/02/10 00:08:57;;;;;;;38.33;34.23;;;3.70;99.90;;;;;;5114137;28;20528;-71
2023/02/10 00:14:08;;;;;;;43.83;34.93;;;3.70;99.90;;;;;;5113071;28;20452;-72
2023/02/10 00:16:37;;;;;;;43.60;34.10;;;3.70;99.90;;;;;;5095642;28;20942;-72
2023/02/10 00:19:05;;;;;;;40.77;35.00;;;3.70;99.90;;;;;;5114004;28;20463;-71
2023/02/10 00:21:34;;;;;;;42.80;36.17;;;3.70;99.90;;;;;;5114506;28;20786;-71
2023/02/10 00:24:02;;;;;;;43.23;34.23;;;3.70;99.90;;;;;;5114361;28;20432;-71
2023/02/10 00:26:30;;;;;;;42.70;37.30;;;3.70;99.90;;;;;;5095599;28;20443;-71
2023/02/10 00:28:58;;;;;;;45.07;36.10;;;3.70;99.90;;;;;;5095236;28;20498;-71
2023/02/10 00:31:26;;;;;;;44.60;36.50;;;3.70;99.90;;;;;;5095473;28;20447;-72
2023/02/10 00:33:56;;;;;;;43.87;36.30;;;3.70;99.90;;;;;;5095449;28;20443;-72
2023/02/10 00:36:24;;;;;;;42.43;34.80;;;3.70;99.90;;;;;;5095425;28;20828;-71
2023/02/10 00:38:53;;;;;;;45.17;37.67;;;3.70;99.90;;;;;;5095386;28;20467;-71
2023/02/10 00:41:25;;;;;;;45.83;36.93;;;3.70;99.90;;;;;;5113869;28;20786;-71
2023/02/10 00:43:53;;;;;;;42.10;33.90;;;3.60;99.90;;;;;;5095420;28;20772;-72
2023/02/10 00:46:22;;;;;;;41.67;36.37;;;3.70;99.90;;;;;;5095378;28;20538;-72
2023/02/10 00:48:51;;;;;;;42.50;36.47;;;3.70;99.90;;;;;;5095079;28;20980;-72
2023/02/10 00:51:20;;;;;;;46.50;36.70;;;3.70;99.90;;;;;;5114209;28;20431;-72
2023/02/10 00:53:50;;;;;;;42.60;37.87;;;3.70;99.90;;;;;;5095400;28;20496;-72
2023/02/10 00:56:20;;;;;;;41.80;37.20;;;3.70;99.90;;;;;;5099719;28;20440;-71
2023/02/10 00:58:48;;;;;;;49.50;38.80;;;3.70;99.90;;;;;;5117661;28;20460;-72
2023/02/10 01:01:17;;;;;;;44.00;36.37;;;3.70;99.90;;;;;;5117899;28;20430;-71
2023/02/10 01:03:45;;;;;;;46.87;36.93;;;3.70;99.90;;;;;;5117867;28;20800;-71
2023/02/10 01:06:15;;;;;;;40.17;35.77;;;3.70;99.90;;;;;;5117543;28;20773;-71
2023/02/10 01:08:44;;;;;;;41.97;34.73;;;3.70;99.90;;;;;;5099066;28;20483;-72
2023/02/10 01:11:14;;;;;;;47.53;38.13;;;3.70;99.90;;;;;;5099162;28;20442;-72
2023/02/10 01:13:42;;;;;;;42.93;36.17;;;3.70;99.90;;;;;;5099138;28;20882;-71
2023/02/10 01:16:13;;;;;;;38.80;34.77;;;3.70;99.90;;;;;;5099071;28;20574;-71
2023/02/10 01:18:43;;;;;;;44.03;35.20;;;3.70;99.90;;;;;;5099189;28;20447;-71
2023/02/10 01:21:13;;;;;;;40.00;34.30;;;3.70;99.90;;;;;;5117490;28;20998;-71
2023/02/10 01:23:41;;;;;;;41.87;34.00;;;3.70;99.90;;;;;;5098900;28;20460;-71
2023/02/10 01:26:11;;;;;;;40.27;34.37;;;3.70;99.90;;;;;;5117111;28;20481;-71
2023/02/10 01:28:40;;;;;;;39.53;34.77;;;3.70;99.90;;;;;;5098117;28;20507;-71
2023/02/10 01:31:10;;;;;;;43.87;34.80;;;3.70;99.90;;;;;;5115720;28;20453;-72
2023/02/10 01:33:41;;;;;;;50.30;35.73;;;3.70;99.90;;;;;;5097406;28;20501;-72
2023/02/10 01:36:12;;;;;;;43.63;35.73;;;3.70;99.90;;;;;;5097421;28;20543;-72
2023/02/10 01:38:40;;;;;;;38.27;34.30;;;3.70;99.90;;;;;;5116109;28;20412;-71
2023/02/10 01:41:10;;;;;;;40.60;35.90;;;3.70;99.90;;;;;;5115820;28;20442;-72
2023/02/10 01:43:54;;;;;;;42.00;35.37;;;3.70;99.90;;;;;;5115515;28;20435;-72
2023/02/10 01:46:22;;;;;;;39.37;33.93;;;3.60;99.90;;;;;;5097296;28;20438;-72
2023/02/10 01:48:52;;;;;;;37.43;33.40;;;3.60;99.90;;;;;;5097054;28;20583;-72
2023/02/10 01:51:23;;;;;;;47.97;34.40;;;3.60;99.90;;;;;;5097120;28;20452;-72
2023/02/10 01:53:52;;;;;;;38.17;32.83;;;3.60;99.90;;;;;;5097113;28;20439;-71
2023/02/10 01:56:22;;;;;;;39.67;34.73;;;3.60;99.90;;;;;;5097085;28;20443;-72
2023/02/10 01:58:50;;;;;;;44.50;35.23;;;3.60;99.90;;;;;;5096998;28;20837;-72
2023/02/10 02:01:18;;;;;;;42.87;33.43;;;3.60;99.90;;;;;;5096995;28;20448;-72
2023/02/10 02:03:47;;;;;;;38.43;34.23;;;3.60;99.90;;;;;;5115162;28;20842;-72
2023/02/10 02:06:15;;;;;;;41.53;32.27;;;3.60;99.90;;;;;;5096511;28;20453;-71
2023/02/10 02:08:43;;;;;;;38.13;34.00;;;3.60;99.90;;;;;;5096650;28;20479;-71
2023/02/10 02:11:25;;;;;;;39.97;33.00;;;3.50;99.90;;;;;;5096796;28;20537;-72
2023/02/10 02:14:07;;;;;;;35.80;30.70;;;3.50;99.90;;;;;;5096943;28;20434;-72
2023/02/10 02:16:44;;;;;;;38.80;31.00;;;3.50;99.90;;;;;;5096851;28;20438;-71
2023/02/10 02:19:43;;;;;;;39.03;33.10;;;3.40;99.90;;;;;;5115230;28;20451;-72
2023/02/10 02:23:00;;;;;;;38.60;34.07;;;3.40;99.90;;;;;;5096759;28;20841;-72
2023/02/10 02:25:45;;;;;;;39.77;31.57;;;3.40;99.90;;;;;;5115619;28;20428;-72
2023/02/10 02:28:27;;;;;;;40.10;34.20;;;3.30;99.90;;;;;;5056669;28;1134321;-72
2023/02/10 02:31:15;;;;;;;46.13;32.80;;;3.30;99.90;;;;;;5097782;28;20195;-71
2023/02/10 02:33:50;;;;;;;42.97;31.63;;;3.30;99.90;;;;;;5097955;28;20820;-71
2023/02/10 02:36:25;;;;;;;39.53;33.83;;;3.20;99.90;;;;;;5097631;28;20447;-71
2023/02/10 02:39:00;;;;;;;40.10;32.97;;;3.20;99.90;;;;;;5097416;28;20467;-71
2023/02/10 02:41:29;;;;;;;45.07;33.70;;;3.20;99.90;;;;;;5097509;28;20796;-71
2023/02/10 02:43:59;;;;;;;38.03;32.50;;;3.10;99.90;;;;;;5097399;28;20471;-71
2023/02/10 02:46:35;;;;;;;48.73;33.90;;;3.10;99.90;;;;;;5115581;28;20434;-71
2023/02/10 02:49:13;;;;;;;41.60;33.53;;;3.10;99.90;;;;;;5097137;28;20997;-71
2023/02/10 02:51:50;;;;;;;39.37;30.97;;;3.10;99.90;;;;;;5097305;28;20508;-71
2023/02/10 02:54:26;;;;;;;39.10;34.20;;;3.10;99.90;;;;;;5097217;28;20439;-71
2023/02/10 02:57:04;;;;;;;41.10;33.63;;;3.00;99.90;;;;;;5097138;28;20463;-71
2023/02/10 02:59:40;;;;;;;43.27;33.87;;;3.00;99.90;;;;;;5115351;28;20458;-71
2023/02/10 03:02:11;;;;;;;41.07;32.07;;;3.00;99.90;;;;;;5097056;28;20432;-72
2023/02/10 03:04:44;;;;;;;50.03;34.20;;;3.00;99.90;;;;;;5097038;28;20941;-71
2023/02/10 03:07:12;;;;;;;42.87;32.70;;;2.90;99.90;;;;;;5115531;28;20425;-71
2023/02/10 03:09:40;;;;;;;40.53;30.90;;;2.90;99.90;;;;;;5115002;28;20478;-71
2023/02/10 03:12:08;;;;;;;43.03;33.50;;;2.90;99.90;;;;;;5096828;28;20961;-72
2023/02/10 03:14:36;;;;;;;41.73;32.00;;;2.90;99.90;;;;;;5096811;28;20493;-71
2023/02/10 03:17:05;;;;;;;43.77;34.00;;;2.90;99.90;;;;;;5114646;28;20500;-72
2023/02/10 03:19:33;;;;;;;43.73;33.57;;;2.80;99.90;;;;;;5114769;28;20462;-72
2023/02/10 03:22:02;;;;;;;36.33;32.37;;;2.80;99.90;;;;;;5115234;28;20438;-71
2023/02/10 03:24:30;;;;;;;49.00;33.17;;;2.80;99.90;;;;;;5115413;28;20434;-72
2023/02/10 03:26:59;;;;;;;40.93;34.47;;;2.80;99.90;;;;;;5096582;28;20438;-71
2023/02/10 03:29:27;;;;;;;48.97;36.40;;;2.80;99.90;;;;;;5114609;28;20834;-72
2023/02/10 03:31:55;;;;;;;41.40;34.07;;;2.80;99.90;;;;;;5114715;28;20439;-71
2023/02/10 03:34:23;;;;;;;43.27;33.70;;;2.80;99.90;;;;;;5114526;28;20454;-72
2023/02/10 03:36:51;;;;;;;43.80;35.90;;;2.70;99.90;;;;;;5114890;28;20439;-72
2023/02/10 03:39:21;;;;;;;39.50;34.50;;;2.70;99.90;;;;;;5114493;28;20474;-71
2023/02/10 03:41:49;;;;;;;41.70;34.93;;;2.70;99.90;;;;;;5114499;28;20804;-71
2023/02/10 03:44:17;;;;;;;44.17;35.10;;;2.70;99.90;;;;;;5114732;28;20446;-72
2023/02/10 03:46:45;;;;;;;48.20;34.43;;;2.70;99.90;;;;;;5096220;28;20499;-71
2023/02/10 03:49:13;;;;;;;40.43;33.60;;;2.70;99.90;;;;;;5114605;28;20868;-71
2023/02/10 03:51:41;;;;;;;42.53;32.03;;;2.70;99.90;;;;;;5114618;28;20431;-72
2023/02/10 03:54:09;;;;;;;42.43;35.10;;;2.70;99.90;;;;;;5095973;28;20453;-71
2023/02/10 03:56:39;;;;;;;46.90;33.80;;;2.70;99.90;;;;;;5114815;28;20933;-72
2023/02/10 03:59:07;;;;;;;41.33;33.50;;;2.70;99.90;;;;;;5114688;28;20826;-72
2023/02/10 04:01:35;;;;;;;40.50;34.43;;;2.70;99.90;;;;;;5114368;28;20439;-72
2023/02/10 04:04:03;;;;;;;45.13;33.90;;;2.70;99.90;;;;;;5114134;28;20440;-72
2023/02/10 04:06:31;;;;;;;40.87;34.30;;;2.70;99.90;;;;;;5114118;28;20439;-71
2023/02/10 04:08:59;;;;;;;47.53;35.77;;;2.70;99.90;;;;;;5114220;28;20455;-72
2023/02/10 04:11:27;;;;;;;46.37;33.60;;;2.70;99.90;;;;;;5113911;28;20482;-72
2023/02/10 04:13:57;;;;;;;40.63;33.57;;;2.70;99.90;;;;;;5114040;28;20431;-71
2023/02/10 04:16:27;;;;;;;38.97;34.57;;;2.70;99.90;;;;;;5113945;28;20449;-71
2023/02/10 04:18:55;;;;;;;49.20;36.53;;;2.70;99.90;;;;;;5113922;28;20453;-72
2023/02/10 04:21:24;;;;;;;40.57;32.53;;;2.70;99.90;;;;;;5114118;28;20438;-71
2023/02/10 04:23:53;;;;;;;41.10;32.77;;;2.70;99.90;;;;;;5113816;28;20427;-71
2023/02/10 04:26:21;;;;;;;43.70;33.90;;;2.70;99.90;;;;;;5113791;28;20500;-71
2023/02/10 04:28:49;;;;;;;46.70;36.13;;;2.70;99.90;;;;;;5113594;28;20469;-71
2023/02/10 04:31:19;;;;;;;46.27;36.03;;;2.60;99.90;;;;;;5114220;28;20470;-72
2023/02/10 04:33:47;;;;;;;43.50;34.83;;;2.70;99.90;;;;;;5113684;28;20457;-72
2023/02/10 04:36:15;;;;;;;42.00;35.27;;;2.70;99.90;;;;;;5113960;28;20431;-72
2023/02/10 04:38:43;;;;;;;45.70;35.73;;;2.60;99.90;;;;;;5113670;28;20526;-71
2023/02/10 04:41:11;;;;;;;40.23;34.23;;;2.60;99.90;;;;;;5113886;28;20431;-71
2023/02/10 04:43:39;;;;;;;45.23;34.40;;;2.60;99.90;;;;;;5113813;28;20500;-71
2023/02/10 04:46:08;;;;;;;42.20;35.70;;;2.60;99.90;;;;;;5113860;28;20453;-72
2023/02/10 04:48:37;;;;;;;43.33;34.80;;;2.60;99.90;;;;;;5114882;28;20946;-71
2023/02/10 04:51:09;;;;;;;44.97;34.87;;;2.60;99.90;;;;;;5114950;28;20470;-71
2023/02/10 04:53:38;;;;;;;43.00;33.57;;;2.60;99.90;;;;;;5114467;28;20518;-71
2023/02/10 04:56:06;;;;;;;42.77;33.80;;;2.60;99.90;;;;;;5113860;28;20504;-72
2023/02/10 04:58:34;;;;;;;49.67;36.43;;;2.60;99.90;;;;;;5114076;28;20435;-72
2023/02/10 05:01:03;;;;;;;43.63;34.60;;;2.60;99.90;;;;;;5113553;28;20937;-71
2023/02/10 05:03:31;;;;;;;39.77;35.43;;;2.60;99.90;;;;;;5113469;28;20773;-71
2023/02/10 05:06:05;;;;;;;49.50;36.83;;;2.50;99.90;;;;;;5113418;28;20491;-72
2023/02/10 05:08:34;;;;;;;44.23;37.70;;;2.50;99.90;;;;;;5095175;28;20504;-71
2023/02/10 05:11:02;;;;;;;41.27;34.93;;;2.50;99.90;;;;;;5113328;28;20459;-71
2023/02/10 05:13:30;;;;;;;44.20;36.03;;;2.50;99.90;;;;;;5113587;28;20447;-71
2023/02/10 05:15:58;;;;;;;43.83;34.00;;;2.50;99.90;;;;;;5095182;28;20492;-71
2023/02/10 05:18:26;;;;;;;48.97;35.70;;;2.50;99.90;;;;;;5113139;28;20453;-72
2023/02/10 05:20:54;;;;;;;48.00;36.80;;;2.50;99.90;;;;;;5113317;28;20438;-71
2023/02/10 05:23:23;;;;;;;42.87;35.37;;;2.50;99.90;;;;;;5113259;28;20441;-72
2023/02/10 05:25:51;;;;;;;44.90;34.67;;;2.40;99.90;;;;;;5113234;28;20495;-71
2023/02/10 05:28:20;;;;;;;41.83;35.10;;;2.50;99.90;;;;;;5113273;28;20868;-72
2023/02/10 05:30:49;;;;;;;44.80;35.73;;;2.40;99.90;;;;;;5112955;28;20469;-71
2023/02/10 05:33:17;;;;;;;40.67;34.50;;;2.40;99.90;;;;;;5113507;28;20441;-71
2023/02/10 05:35:45;;;;;;;43.97;36.77;;;2.40;99.90;;;;;;5094907;28;20458;-72
2023/02/10 05:38:13;;;;;;;44.23;35.67;;;2.40;99.90;;;;;;5113105;28;20933;-71
2023/02/10 05:40:43;;;;;;;46.40;34.87;;;2.40;99.90;;;;;;5113757;28;20459;-72
2023/02/10 05:43:11;;;;;;;40.37;35.80;;;2.40;99.90;;;;;;5117104;28;20441;-72
2023/02/10 05:45:41;;;;;;;44.17;35.60;;;2.40;99.90;;;;;;5117319;28;20439;-71
2023/02/10 05:48:09;;;;;;;47.93;37.00;;;2.40;99.90;;;;;;5117316;28;20889;-71
2023/02/10 05:50:39;;;;;;;40.30;35.80;;;2.40;99.90;;;;;;5116826;28;20469;-71
2023/02/10 05:53:14;;;;;;;47.10;35.97;;;2.40;99.90;;;;;;5098422;28;20433;-72
2023/02/10 05:55:46;;;;;;;44.63;35.70;;;2.30;99.90;;;;;;5116612;28;20437;-72
2023/02/10 05:58:14;;;;;;;47.63;36.57;;;2.30;99.90;;;;;;5116614;28;20887;-71
2023/02/10 06:00:43;;;;;;;42.40;34.53;;;2.30;99.90;;;;;;5116529;28;20468;-71
2023/02/10 06:03:11;;;;;;;45.80;35.80;;;2.30;99.90;;;;;;5116513;28;20929;-71
2023/02/10 06:05:39;;;;;;;47.20;36.20;;;2.30;99.90;;;;;;5098141;28;20450;-71
2023/02/10 06:08:07;;;;;;;44.13;35.30;;;2.30;99.90;;;;;;5117060;28;20442;-72
2023/02/10 06:10:35;;;;;;;45.03;35.50;;;2.30;99.90;;;;;;5098262;28;20833;-71
2023/02/10 06:13:05;;;;;;;42.53;35.87;;;2.30;99.90;;;;;;5098083;28;20442;-72
2023/02/10 06:15:33;;;;;;;45.93;35.47;;;2.30;99.90;;;;;;5116353;28;20441;-72
2023/02/10 06:18:02;;;;;;;45.80;35.80;;;2.30;99.90;;;;;;5116669;28;20435;-71
2023/02/10 06:20:30;;;;;;;44.30;37.03;;;2.30;99.90;;;;;;5098135;28;20851;-71
2023/02/10 06:22:58;;;;;;;53.60;39.03;;;2.30;99.90;;;;;;5116336;28;20444;-71
2023/02/10 06:25:26;;;;;;;49.37;39.03;;;2.30;99.90;;;;;;5097878;28;20453;-71
2023/02/10 06:27:54;;;;;;;50.30;36.77;;;2.30;99.90;;;;;;5115909;28;20444;-71
2023/02/10 06:30:23;;;;;;;43.07;37.90;;;2.20;99.90;;;;;;5115734;28;20472;-71
2023/02/10 06:32:52;;;;;;;45.37;37.07;;;2.30;99.90;;;;;;5115985;28;20519;-71
2023/02/10 06:35:21;;;;;;;50.13;37.00;;;2.20;99.90;;;;;;5115922;28;20565;-71
2023/02/10 06:37:49;;;;;;;42.80;34.63;;;2.20;99.90;;;;;;5097608;28;20961;-71
2023/02/10 06:40:17;;;;;;;53.93;35.23;;;2.20;99.90;;;;;;5097403;28;20868;-71
2023/02/10 06:42:46;;;;;;;48.57;35.73;;;2.20;99.90;;;;;;5115656;28;20439;-71
2023/02/10 06:45:14;;;;;;;41.03;35.70;;;2.20;99.90;;;;;;5097396;28;20496;-71
2023/02/10 06:47:43;;;;;;;43.60;36.83;;;2.20;99.90;;;;;;5115572;28;20433;-70
2023/02/10 06:50:13;;;;;;;44.17;35.20;;;2.20;99.90;;;;;;5115439;28;20466;-71
2023/02/10 06:52:41;;;;;;;48.27;35.53;;;2.20;99.90;;;;;;5114234;28;20467;-71
2023/02/10 06:55:09;;;;;;;53.40;36.83;;;2.20;99.90;;;;;;5115434;28;20435;-71
2023/02/10 06:57:37;;;;;;;43.50;35.27;;;2.20;99.90;;;;;;5115618;28;20443;-71
2023/02/10 07:00:08;;;;;;;48.47;37.77;;;2.20;99.90;;;;;;5115333;28;20447;-71
2023/02/10 07:02:36;;;;;;;41.70;34.63;;;2.20;99.90;;;;;;5115650;28;20501;-71
2023/02/10 07:05:07;;;;;;;44.70;36.47;;;2.20;99.90;;;;;;5096931;28;20814;-71
2023/02/10 07:07:36;;;;;;;45.03;37.37;;;2.20;99.90;;;;;;5115218;28;20422;-71
2023/02/10 07:10:04;;;;;;;41.60;37.00;;;2.20;99.90;;;;;;5115168;28;20466;-71
2023/02/10 07:12:32;;;;;;;44.60;34.57;;;2.20;99.90;;;;;;5115009;28;20470;-71
2023/02/10 07:15:00;;;;;;;45.10;37.33;;;2.20;99.90;;;;;;5097168;28;20799;-71
2023/02/10 07:17:28;;;;;;;45.07;36.53;;;2.20;99.90;;;;;;5115211;28;20460;-71
2023/02/10 07:19:57;;;;;;;42.97;36.30;;;2.10;99.90;;;;;;5115495;28;20557;-71
2023/02/10 07:22:26;;;;;;;44.70;36.80;;;2.10;99.90;;;;;;5114886;28;21021;-71
2023/02/10 07:24:54;;;;;;;47.90;40.00;;;2.10;99.90;;;;;;5114846;28;20448;-71
2023/02/10 07:27:22;;;;;;;45.40;36.93;;;2.20;99.90;;;;;;5114710;28;20799;-71
2023/02/10 07:29:50;;;;;;;42.20;37.17;;;2.10;99.90;;;;;;5114704;28;20471;-71
2023/02/10 07:32:18;;;;;;;46.20;37.87;;;2.20;99.90;;;;;;5114630;28;20467;-71
2023/02/10 07:34:49;;;;;;;47.83;39.20;;;2.20;99.90;;;;;;5114850;28;20472;-71
2023/02/10 07:37:17;;;;;;;50.43;41.80;;;2.20;99.90;;;;;;5114663;28;20423;-71
2023/02/10 07:39:46;;;;;;;54.10;39.70;;;2.20;99.90;;;;;;5114486;28;20993;-71
2023/02/10 07:42:14;;;;;;;53.53;40.03;;;2.20;99.90;;;;;;5114507;28;20432;-71
2023/02/10 07:45:05;;;;;;;47.90;40.23;;;2.20;99.90;;;;;;5096193;28;20495;-71
2023/02/10 07:47:33;;;;;;;51.40;39.43;;;2.30;99.90;;;;;;5114395;28;20445;-71
2023/02/10 07:50:01;;;;;;;49.77;38.00;;;2.30;99.90;;;;;;5114308;28;20456;-71
2023/02/10 07:52:29;;;;;;;45.50;37.10;;;2.30;99.90;;;;;;5114510;28;20866;-71
2023/02/10 07:55:02;;;;;;;42.57;36.43;;;2.30;99.90;;;;;;5114541;28;20446;-71
2023/02/10 07:57:30;;;;;;;44.47;37.20;;;2.30;99.90;;;;;;5095991;28;20436;-71
2023/02/10 07:59:58;;;;;;;46.53;36.77;;;2.40;99.90;;;;;;5114378;28;20456;-71
2023/02/10 08:02:26;;;;;;;43.33;38.60;;;2.40;99.90;;;;;;5114053;28;20447;-71
2023/02/10 08:04:55;;;;;;;44.60;36.23;;;2.40;99.90;;;;;;5114003;28;20528;-71
2023/02/10 08:07:23;;;;;;;40.17;34.97;;;2.40;99.90;;;;;;5113990;28;20462;-71
2023/02/10 08:09:51;;;;;;;38.50;33.80;;;2.50;99.90;;;;;;5113971;28;20461;-71
2023/02/10 08:12:21;;;;;;;41.67;34.50;;;2.50;99.90;;;;;;5095721;28;20470;-71
2023/02/10 08:14:49;;;;;;;43.57;34.43;;;2.50;99.90;;;;;;5113943;28;20439;-71
2023/02/10 08:17:17;;;;;;;43.13;34.27;;;2.60;99.90;;;;;;5114167;28;20451;-71
2023/02/10 08:19:45;;;;;;;40.27;34.77;;;2.60;99.90;;;;;;5113803;28;20534;-71
2023/02/10 08:22:13;;;;;;;38.13;33.43;;;2.60;99.90;;;;;;5114070;28;20486;-71
2023/02/10 08:24:42;;;;;;;45.20;34.47;;;2.70;99.90;;;;;;5114056;28;20440;-71
2023/02/10 08:27:10;;;;;;;39.70;35.07;;;2.70;99.90;;;;;;5113802;28;20469;-71
2023/02/10 08:29:40;;;;;;;37.30;33.13;;;2.80;99.90;;;;;;5113520;28;20969;-71
2023/02/10 08:32:09;;;;;;;39.80;33.70;;;2.80;99.90;;;;;;5114182;28;20466;-71
2023/02/10 08:34:38;;;;;;;40.03;32.83;;;2.80;99.90;;;;;;5113920;28;20776;-71
2023/02/10 08:37:06;;;;;;;38.17;33.80;;;2.90;99.90;;;;;;5113702;28;20457;-71
2023/02/10 08:39:34;;;;;;;37.50;33.47;;;2.90;99.90;;;;;;5113583;28;20541;-71
2023/02/10 08:42:02;;;;;;;43.00;33.80;;;3.00;99.90;;;;;;5113544;28;20432;-71
2023/02/10 08:44:30;;;;;;;38.50;32.77;;;3.00;99.90;;;;;;5113606;28;20781;-71
2023/02/10 08:47:00;;;;;;;34.87;31.17;;;3.10;99.90;;;;;;5114085;28;20444;-71
2023/02/10 08:49:28;;;;;;;35.43;30.33;;;3.10;99.90;;;;;;5095482;28;20804;-71
2023/02/10 08:51:57;;;;;;;40.93;33.13;;;3.10;99.90;;;;;;5113680;28;20477;-71
2023/02/10 08:54:25;;;;;;;41.47;32.90;;;3.20;99.90;;;;;;5113516;28;20447;-71
2023/02/10 08:56:54;;;;;;;36.40;31.50;;;3.20;99.90;;;;;;5113452;28;20959;-71
2023/02/10 08:59:22;;;;;;;35.40;31.60;;;3.20;99.90;;;;;;5113616;28;20458;-71
2023/02/10 09:01:50;;;;;;;36.13;31.13;;;3.30;99.90;;;;;;5113708;28;20443;-71
2023/02/10 09:04:21;;;;;;;34.47;30.47;;;3.30;99.90;;;;;;5095098;28;20451;-71
2023/02/10 09:06:49;;;;;;;40.23;31.60;;;3.40;99.90;;;;;;5095111;28;20440;-71
2023/02/10 09:09:21;;;;;;;34.80;29.90;;;3.40;99.90;;;;;;5113282;28;20451;-71
2023/02/10 09:11:49;;;;;;;39.20;29.20;;;3.50;99.90;;;;;;5113328;28;20416;-71
2023/02/10 09:14:18;;;;;;;34.63;30.50;;;3.50;99.90;;;;;;5113584;28;20489;-71
2023/02/10 09:16:46;;;;;;;41.40;30.07;;;3.60;99.90;;;;;;5116237;28;20466;-71
2023/02/10 09:19:14;;;;;;;36.00;29.10;;;3.60;99.90;;;;;;5117496;28;20455;-71
2023/02/10 09:21:43;;;;;;;37.90;32.00;;;3.60;99.90;;;;;;5117243;28;20960;-71
2023/02/10 09:24:14;;;;;;;38.97;29.37;;;3.70;99.90;;;;;;5117506;28;20827;-71
2023/02/10 09:26:43;;;;;;;36.30;29.07;;;3.80;99.90;;;;;;5117382;28;20439;-71
2023/02/10 09:29:12;;;;;;;32.40;28.83;;;3.80;99.90;;;;;;5117095;28;20470;-71
2023/02/10 09:31:40;;;;;;;32.10;28.80;;;3.80;99.90;;;;;;5117019;28;20435;-71
2023/02/10 09:34:08;;;;;;;34.27;29.93;;;3.90;99.90;;;;;;5116964;28;20869;-71
2023/02/10 09:36:36;;;;;;;38.13;30.00;;;4.00;99.90;;;;;;5117011;28;20850;-71
2023/02/10 09:39:07;;;;;;;31.57;28.27;;;4.00;99.90;;;;;;5116919;28;21034;-71
2023/02/10 09:41:56;;;;;;;31.17;27.87;;;4.00;99.90;;;;;;5117793;28;20528;-71
2023/02/10 09:44:27;;;;;;;34.30;28.57;;;4.10;99.90;;;;;;5117104;28;20426;-71
2023/02/10 09:47:23;;;;;;;34.70;28.90;;;4.10;99.90;;;;;;5098569;28;20436;-71
2023/02/10 09:50:06;;;;;;;34.57;28.93;;;4.20;99.90;;;;;;5116671;28;20466;-71
2023/02/10 09:52:52;;;;;;;33.63;28.53;;;4.30;99.90;;;;;;5116651;28;20949;-71
2023/02/10 09:55:26;;;;;;;33.90;29.47;;;4.30;99.90;;;;;;5098460;28;20509;-71
2023/02/10 09:57:58;;;;;;;30.00;26.70;;;4.40;99.90;;;;;;5116901;28;20419;-71
2023/02/10 10:00:29;;;;;;;31.97;28.63;;;4.40;99.90;;;;;;5098234;28;20474;-71
2023/02/10 10:02:59;;;;;;;28.97;25.97;;;4.50;99.90;;;;;;5116805;28;20447;-71
2023/02/10 10:05:40;;;;;;;29.13;26.00;;;4.50;99.90;;;;;;5116472;28;20941;-71
2023/02/10 10:08:17;;;;;;;32.00;28.17;;;4.60;99.90;;;;;;5098205;28;20439;-72
2023/02/10 10:10:47;;;;;;;30.17;27.00;;;4.70;99.90;;;;;;5116394;28;20455;-72
2023/02/10 10:13:18;;;;;;;33.20;28.07;;;4.70;99.90;;;;;;5097967;28;20470;-71
2023/02/10 10:16:09;;;;;;;33.30;27.40;;;4.80;99.90;;;;;;5116550;28;20902;-72
2023/02/10 10:18:46;;;;;;;29.53;26.40;;;4.80;99.90;;;;;;5116089;28;20435;-72
2023/02/10 10:21:23;;;;;;;30.43;26.40;;;4.80;99.90;;;;;;5116750;28;20502;-70
2023/02/10 10:24:11;;;;;;;32.40;27.03;;;4.90;99.90;;;;;;5097769;28;20784;-71
2023/02/10 10:26:55;;;;;;;30.27;25.60;;;5.00;99.90;;;;;;5116041;28;20415;-71
2023/02/10 10:29:32;;;;;;;30.57;25.33;;;5.00;99.90;;;;;;5115886;28;20466;-72
2023/02/10 10:32:12;;;;;;;30.50;27.30;;;5.10;99.90;;;;;;5097702;28;20438;-72
2023/02/10 10:34:43;;;;;;;34.27;26.10;;;5.10;99.90;;;;;;5097718;28;20471;-71
2023/02/10 10:37:16;;;;;;;28.10;25.20;;;5.10;99.90;;;;;;5116161;28;20408;-72
2023/02/10 10:39:46;;;;;;;27.53;24.73;;;5.20;99.90;;;;;;5116144;28;20463;-72
2023/02/10 10:42:23;;;;;;;30.20;27.00;;;5.20;99.90;;;;;;5115842;28;20469;-71
2023/02/10 10:44:59;;;;;;;29.47;26.30;;;5.30;99.90;;;;;;5116010;28;20456;-72
2023/02/10 10:47:37;;;;;;;27.93;25.03;;;5.30;99.90;;;;;;5115857;28;20464;-71
2023/02/10 10:50:06;;;;;;;27.43;24.70;;;5.40;99.90;;;;;;5115884;28;20463;-71
2023/02/10 10:52:37;;;;;;;26.90;24.20;;;5.40;99.90;;;;;;5115960;28;20443;-72
2023/02/10 10:55:14;;;;;;;29.37;26.17;;;5.50;99.90;;;;;;5115985;28;20878;-72
2023/02/10 10:57:43;;;;;;;28.20;25.20;;;5.50;99.90;;;;;;5115859;28;20430;-72
2023/02/10 11:00:21;;;;;;;27.30;24.40;;;5.60;99.90;;;;;;5115311;28;20666;-72
2023/02/10 11:02:55;;;;;;;27.13;24.23;;;5.70;99.90;;;;;;5115747;28;20816;-72
2023/02/10 11:05:26;;;;;;;27.97;24.57;;;5.70;99.90;;;;;;5115571;28;20444;-72
2023/02/10 11:07:57;;;;;;;26.70;23.43;;;5.80;99.90;;;;;;5115216;28;20906;-71
2023/02/10 11:10:31;;;;;;;25.80;23.10;;;5.90;99.90;;;;;;5115206;28;20495;-72
2023/02/10 11:13:03;;;;;;;25.77;23.17;;;5.90;99.90;;;;;;5115374;28;20420;-72
2023/02/10 11:15:37;;;;;;;28.53;23.50;;;5.90;99.90;;;;;;5115395;28;20415;-72
2023/02/10 11:18:16;;;;;;;28.10;23.87;;;6.00;99.90;;;;;;5115362;28;20511;-72
2023/02/10 11:20:53;;;;;;;26.90;23.30;;;6.10;99.90;;;;;;5115486;28;20457;-71
2023/02/10 11:23:22;;;;;;;29.97;24.10;;;6.10;99.90;;;;;;5115236;28;20432;-71
2023/02/10 11:25:58;;;;;;;24.20;21.60;;;6.20;99.90;;;;;;5114879;28;20486;-72
2023/02/10 11:28:29;;;;;;;29.07;24.70;;;6.20;99.90;;;;;;5114877;28;20464;-71
2023/02/10 11:31:00;;;;;;;30.93;25.97;;;6.20;99.90;;;;;;5115072;28;20412;-71
2023/02/10 11:33:32;;;;;;;26.40;23.47;;;6.30;99.90;;;;;;5114683;28;20547;-72
2023/02/10 11:36:04;;;;;;;27.23;24.40;;;6.30;99.90;;;;;;5115276;28;20415;-71
2023/02/10 11:38:33;;;;;;;26.27;23.60;;;6.40;99.90;;;;;;5095660;28;20449;-72
2023/02/10 11:41:05;;;;;;;25.20;22.57;;;6.40;99.90;;;;;;5114772;28;20452;-72
2023/02/10 11:43:40;;;;;;;26.80;22.27;;;6.40;99.90;;;;;;5115094;28;20420;-72
2023/02/10 11:46:20;;;;;;;30.10;23.17;;;6.50;99.90;;;;;;5114536;28;20441;-71
2023/02/10 11:48:54;;;;;;;26.53;23.70;;;6.50;99.90;;;;;;5114920;28;20487;-72
2023/02/10 11:51:22;;;;;;;26.63;23.90;;;6.50;99.90;;;;;;5114715;28;20425;-72
2023/02/10 11:53:51;;;;;;;29.30;25.07;;;6.60;99.90;;;;;;5114257;28;20476;-72
2023/02/10 11:58:58;;;;;;;26.63;23.87;;;6.60;99.90;;;;;;5114222;28;20429;-72
2023/02/10 11:59:25;;;;;;;30.07;23.43;;;6.60;99.90;;;;;;5095792;28;20467;-72
2023/02/10 12:01:57;;;;;;;29.20;24.83;;;6.60;99.90;;;;;;5114669;28;20448;-72
2023/02/10 12:05:03;;;;;;;27.90;25.10;;;6.60;99.90;;;;;;5096195;28;20981;-71
2023/02/10 12:07:44;;;;;;;26.57;23.67;;;6.70;99.90;;;;;;5099696;28;20448;-71
2023/02/10 12:10:18;;;;;;;27.93;25.00;;;6.70;99.90;;;;;;5113952;28;20453;-71
2023/02/10 12:12:53;;;;;;;29.47;24.03;;;6.70;99.90;;;;;;5114341;28;20420;-71
2023/02/10 12:15:35;;;;;;;26.80;22.87;;;6.70;99.90;;;;;;5114229;28;20941;-71
2023/02/10 12:18:19;;;;;;;26.90;24.00;;;6.70;99.90;;;;;;5114248;28;20437;-71
2023/02/10 12:21:03;;;;;;;28.63;25.10;;;6.70;99.90;;;;;;5114360;28;20470;-71
2023/02/10 12:23:51;;;;;;;26.87;24.00;;;6.70;99.90;;;;;;5095605;28;20443;-70
2023/02/10 12:26:25;;;;;;;29.97;25.27;;;6.70;99.90;;;;;;5114427;28;20420;-71
2023/02/10 12:29:02;;;;;;;27.57;24.67;;;6.70;99.90;;;;;;5095417;28;20486;-71
2023/02/10 12:31:45;;;;;;;27.37;23.80;;;6.80;99.90;;;;;;5114317;28;20829;-71
2023/02/10 12:34:38;;;;;;;28.50;25.57;;;6.80;99.90;;;;;;5114435;28;20540;-72
2023/02/10 12:37:19;;;;;;;29.87;26.70;;;6.80;99.90;;;;;;5113985;28;20426;-72
2023/02/10 12:39:57;;;;;;;27.00;24.10;;;6.80;99.90;;;;;;5113786;28;20457;-71
2023/02/10 12:42:41;;;;;;;29.90;26.40;;;6.80;99.90;;;;;;5113968;28;20782;-71
2023/02/10 12:45:21;;;;;;;29.27;26.10;;;6.80;99.90;;;;;;5113619;28;20419;-71
2023/02/10 12:48:02;;;;;;;27.70;24.63;;;6.80;99.90;;;;;;5113952;28;20500;-71
2023/02/10 12:51:00;;;;;;;28.57;24.60;;;6.90;99.90;;;;;;5097636;28;20471;-72
2023/02/10 12:53:35;;;;;;;29.07;26.03;;;6.90;99.90;;;;;;5118428;28;20462;-71
2023/02/10 12:56:11;;;;;;;30.13;26.37;;;6.90;99.90;;;;;;5117797;28;20416;-71
2023/02/10 12:58:42;;;;;;;28.50;25.40;;;6.90;99.90;;;;;;5118010;28;20427;-71
2023/02/10 13:01:15;;;;;;;28.93;25.80;;;7.00;99.90;;;;;;5118039;28;20901;-71